createdAt,value
2022-08-19T00:00:19.375Z,21.91
2022-08-19T00:02:50.294Z,22.06
2022-08-19T00:05:22.602Z,22.14
2022-08-19T00:07:53.260Z,22.15
2022-08-19T00:10:25.431Z,22.34
2022-08-19T00:12:56.061Z,22.42
2022-08-19T00:15:26.718Z,22.20
2022-08-19T00:17:57.231Z,22.39
2022-08-19T00:20:27.867Z,22.16
2022-08-19T00:22:58.533Z,22.16
2022-08-19T00:25:30.911Z,21.93
2022-08-19T00:28:01.484Z,22.11
2022-08-19T00:30:32.015Z,21.74
2022-08-19T00:33:03.148Z,21.61
2022-08-19T00:35:34.693Z,21.91
2022-08-19T00:38:06.777Z,21.97
2022-08-19T00:40:37.162Z,22.08
2022-08-19T00:43:14.125Z,22.36
2022-08-19T00:45:45.117Z,22.11
2022-08-19T00:48:17.436Z,22.09
2022-08-19T00:50:51.491Z,22.04
2022-08-19T00:53:24.850Z,21.99
2022-08-19T00:55:59.852Z,21.92
2022-08-19T00:58:34.179Z,21.62
2022-08-19T01:01:08.509Z,21.30
2022-08-19T01:03:57.865Z,21.06
2022-08-19T01:06:14.378Z,20.86
2022-08-19T01:08:50.017Z,20.68
2022-08-19T01:11:20.768Z,20.56
2022-08-19T01:13:53.897Z,20.28
2022-08-19T01:16:26.898Z,20.18
2022-08-19T01:18:57.553Z,20.26
2022-08-19T01:21:34.160Z,20.23
2022-08-19T01:24:06.209Z,20.20
2022-08-19T01:26:44.627Z,20.09
2022-08-19T01:29:15.539Z,20.14
2022-08-19T01:31:45.998Z,20.28
2022-08-19T01:34:16.669Z,20.17
2022-08-19T01:36:50.204Z,20.25
2022-08-19T01:39:24.196Z,20.11
2022-08-19T01:41:55.448Z,20.10
2022-08-19T01:44:25.983Z,20.28
2022-08-19T01:46:56.542Z,20.37
2022-08-19T01:49:27.523Z,20.46
2022-08-19T01:51:59.132Z,20.35
2022-08-19T01:54:33.047Z,20.42
2022-08-19T01:57:06.848Z,20.42
2022-08-19T01:59:37.639Z,20.40
2022-08-19T02:02:09.430Z,20.53
2022-08-19T02:04:40.338Z,20.58
2022-08-19T02:07:10.872Z,20.43
2022-08-19T02:09:41.387Z,20.41
2022-08-19T02:12:11.944Z,20.58
2022-08-19T02:14:43.033Z,20.65
2022-08-19T02:17:13.517Z,20.73
2022-08-19T02:19:44.006Z,20.71
2022-08-19T02:22:14.495Z,20.30
2022-08-19T02:24:45.043Z,20.12
2022-08-19T02:27:15.873Z,20.39
2022-08-19T02:29:51.949Z,20.24
2022-08-19T02:32:22.477Z,20.32
2022-08-19T02:34:52.966Z,20.34
2022-08-19T02:37:41.126Z,20.24
2022-08-19T02:40:12.869Z,20.42
2022-08-19T02:42:43.766Z,20.32
2022-08-19T02:45:15.403Z,20.28
2022-08-19T02:47:47.058Z,20.12
2022-08-19T02:50:19.210Z,20.19
2022-08-19T02:52:49.687Z,20.26
2022-08-19T02:55:20.341Z,20.00
2022-08-19T02:57:52.529Z,19.88
2022-08-19T03:00:24.700Z,19.96
2022-08-19T03:02:55.413Z,20.05
2022-08-19T03:05:47.964Z,20.10
2022-08-19T03:08:00.042Z,20.20
2022-08-19T03:10:30.548Z,20.08
2022-08-19T03:13:04.725Z,20.13
2022-08-19T03:15:35.393Z,20.16
2022-08-19T03:18:06.701Z,20.02
2022-08-19T03:20:45.016Z,20.12
2022-08-19T03:23:16.328Z,20.02
2022-08-19T03:26:05.622Z,20.12
2022-08-19T03:28:21.704Z,20.10
2022-08-19T03:31:04.699Z,20.18
2022-08-19T03:33:37.524Z,20.01
2022-08-19T03:36:16.859Z,20.16
2022-08-19T03:38:50.643Z,19.99
2022-08-19T03:41:44.191Z,20.03
2022-08-19T03:44:02.184Z,19.96
2022-08-19T03:46:35.062Z,19.90
2022-08-19T03:49:09.938Z,19.96
2022-08-19T03:51:41.780Z,19.92
2022-08-19T03:54:14.975Z,20.01
2022-08-19T03:56:47.146Z,19.86
2022-08-19T03:59:21.464Z,19.92
2022-08-19T04:01:51.928Z,19.93
2022-08-19T04:04:22.571Z,20.03
2022-08-19T04:06:53.486Z,20.01
2022-08-19T04:09:24.012Z,19.97
2022-08-19T04:11:57.245Z,20.16
2022-08-19T04:14:32.553Z,20.15
2022-08-19T04:17:07.954Z,19.94
2022-08-19T04:19:39.600Z,20.05
2022-08-19T04:22:12.188Z,20.04
2022-08-19T04:24:42.937Z,20.04
2022-08-19T04:27:16.070Z,20.12
2022-08-19T04:29:46.786Z,20.12
2022-08-19T04:32:23.196Z,20.20
2022-08-19T04:35:15.744Z,20.34
2022-08-19T04:37:31.864Z,20.33
2022-08-19T04:40:18.793Z,20.44
2022-08-19T04:42:49.534Z,20.37
2022-08-19T04:45:20.199Z,20.44
2022-08-19T04:47:57.978Z,20.54
2022-08-19T04:50:27.797Z,20.48
2022-08-19T04:52:58.310Z,20.46
2022-08-19T04:55:28.937Z,20.65
2022-08-19T04:57:59.464Z,20.70
2022-08-19T05:00:30.633Z,20.78
2022-08-19T05:03:01.854Z,20.73
2022-08-19T05:05:44.683Z,20.84
2022-08-19T05:08:12.456Z,21.08
2022-08-19T05:10:45.541Z,21.06
2022-08-19T05:13:17.423Z,21.62
2022-08-19T05:15:56.846Z,22.06
2022-08-19T05:18:45.894Z,22.47
2022-08-19T05:21:37.066Z,22.98
2022-08-19T05:24:10.214Z,23.54
2022-08-19T05:26:42.743Z,24.20
2022-08-19T05:29:13.571Z,23.94
2022-08-19T05:31:44.244Z,24.36
2022-08-19T05:34:18.211Z,24.84
2022-08-19T05:36:47.934Z,24.85
2022-08-19T05:39:23.028Z,25.40
2022-08-19T05:41:59.291Z,25.41
2022-08-19T05:44:32.502Z,24.94
2022-08-19T05:47:05.431Z,23.88
2022-08-19T05:49:37.576Z,23.73
2022-08-19T05:52:11.745Z,23.60
2022-08-19T05:54:46.685Z,23.15
2022-08-19T05:57:18.482Z,23.49
2022-08-19T05:59:52.895Z,23.06
2022-08-19T06:02:22.838Z,23.94
2022-08-19T06:04:53.327Z,23.97
2022-08-19T06:07:23.974Z,24.38
2022-08-19T06:09:59.854Z,24.05
2022-08-19T06:12:28.452Z,23.66
2022-08-19T06:15:00.848Z,23.84
2022-08-19T06:17:32.531Z,23.54
2022-08-19T06:20:05.161Z,23.35
2022-08-19T06:22:40.531Z,22.94
2022-08-19T06:25:11.493Z,22.81
2022-08-19T06:28:11.531Z,23.12
2022-08-19T06:30:15.213Z,23.27
2022-08-19T06:32:45.832Z,23.49
2022-08-19T06:35:16.396Z,23.20
2022-08-19T06:37:47.992Z,23.33
2022-08-19T06:40:18.797Z,23.68
2022-08-19T06:42:54.485Z,23.83
2022-08-19T06:45:25.118Z,23.64
2022-08-19T06:47:57.541Z,23.70
2022-08-19T06:50:28.125Z,23.71
2022-08-19T06:52:58.616Z,23.50
2022-08-19T06:55:33.425Z,23.10
2022-08-19T06:58:05.879Z,22.98
2022-08-19T07:00:37.152Z,23.49
2022-08-19T07:03:08.899Z,23.57
2022-08-19T07:05:45.803Z,23.50
2022-08-19T07:08:16.861Z,23.60
2022-08-19T07:10:50.179Z,23.52
2022-08-19T07:13:20.732Z,23.41
2022-08-19T07:15:51.598Z,23.36
2022-08-19T07:18:27.253Z,23.40
2022-08-19T07:21:12.269Z,23.29
2022-08-19T07:23:43.516Z,23.27
2022-08-19T07:26:17.036Z,23.46
2022-08-19T07:28:51.354Z,23.44
2022-08-19T07:31:24.686Z,23.46
2022-08-19T07:33:57.845Z,23.68
2022-08-19T07:36:32.144Z,23.49
2022-08-19T07:39:06.047Z,23.54
2022-08-19T07:41:38.408Z,23.58
2022-08-19T07:44:10.631Z,23.67
2022-08-19T07:46:46.493Z,23.46
2022-08-19T07:49:21.119Z,23.48
2022-08-19T07:51:57.501Z,23.59
2022-08-19T07:54:29.565Z,23.68
2022-08-19T07:57:00.206Z,23.74
2022-08-19T07:59:31.013Z,23.94
2022-08-19T08:02:02.047Z,23.79
2022-08-19T08:04:51.598Z,23.96
2022-08-19T08:07:40.112Z,23.70
2022-08-19T08:10:20.670Z,23.34
2022-08-19T08:12:45.327Z,23.49
2022-08-19T08:15:19.558Z,23.62
2022-08-19T08:17:51.657Z,23.78
2022-08-19T08:20:22.887Z,23.76
2022-08-19T08:23:11.275Z,23.91
2022-08-19T08:25:41.891Z,24.11
2022-08-19T08:28:17.673Z,24.16
2022-08-19T08:30:46.247Z,24.15
2022-08-19T08:33:28.491Z,24.14
2022-08-19T08:35:54.289Z,24.12
2022-08-19T08:38:24.977Z,24.22
2022-08-19T08:41:01.737Z,24.41
2022-08-19T08:43:44.406Z,24.53
2022-08-19T08:46:31.085Z,24.34
2022-08-19T08:49:16.885Z,24.42
2022-08-19T08:51:59.355Z,24.23
2022-08-19T08:54:24.865Z,24.20
2022-08-19T08:56:56.144Z,24.23
2022-08-19T08:59:33.267Z,24.20
2022-08-19T09:02:04.156Z,24.04
2022-08-19T09:04:37.375Z,24.24
2022-08-19T09:07:35.327Z,24.13
2022-08-19T09:10:13.530Z,24.18
2022-08-19T09:12:56.139Z,24.06
2022-08-19T09:15:36.809Z,24.23
2022-08-19T09:18:07.369Z,24.55
2022-08-19T09:20:38.072Z,24.52
2022-08-19T09:23:11.859Z,24.83
2022-08-19T09:25:42.375Z,25.04
2022-08-19T09:28:22.614Z,25.50
2022-08-19T09:30:45.768Z,25.22
2022-08-19T09:33:18.059Z,25.34
2022-08-19T09:35:53.619Z,25.16
2022-08-19T09:38:23.543Z,25.08
2022-08-19T09:40:54.109Z,24.96
2022-08-19T09:43:33.824Z,25.50
2022-08-19T09:45:58.883Z,25.20
2022-08-19T09:48:29.404Z,25.57
2022-08-19T09:51:09.059Z,25.12
2022-08-19T09:53:41.448Z,25.02
2022-08-19T09:56:12.977Z,24.65
2022-08-19T09:58:43.874Z,24.79
2022-08-19T10:01:20.657Z,24.50
2022-08-19T10:03:55.061Z,24.40
2022-08-19T10:06:38.194Z,24.61
2022-08-19T10:09:04.487Z,24.68
2022-08-19T10:11:40.081Z,25.06
2022-08-19T10:14:10.900Z,24.80
2022-08-19T10:16:42.568Z,24.62
2022-08-19T10:19:13.411Z,24.60
2022-08-19T10:21:44.657Z,24.58
2022-08-19T10:24:17.054Z,24.89
2022-08-19T10:26:57.358Z,24.95
2022-08-19T10:29:32.716Z,24.54
2022-08-19T10:31:59.809Z,24.67
2022-08-19T10:34:28.628Z,24.54
2022-08-19T10:37:01.861Z,24.25
2022-08-19T10:39:43.485Z,24.11
2022-08-19T10:42:10.535Z,24.09
2022-08-19T10:44:41.363Z,23.84
2022-08-19T10:47:17.610Z,24.02
2022-08-19T10:50:04.143Z,23.76
2022-08-19T10:52:35.200Z,23.73
2022-08-19T10:55:29.284Z,23.61
2022-08-19T10:58:04.115Z,23.41
2022-08-19T11:00:33.348Z,23.55
2022-08-19T11:03:03.908Z,23.59
2022-08-19T11:05:39.706Z,24.02
2022-08-19T11:08:22.349Z,23.94
2022-08-19T11:10:46.825Z,23.81
2022-08-19T11:13:17.375Z,23.78
2022-08-19T11:15:48.491Z,23.80
2022-08-19T11:18:18.961Z,23.84
2022-08-19T11:20:50.018Z,23.56
2022-08-19T11:23:20.678Z,23.64
2022-08-19T11:25:52.481Z,23.60
2022-08-19T11:28:22.967Z,23.60
2022-08-19T11:30:53.539Z,23.60
2022-08-19T11:33:24.395Z,23.50
2022-08-19T11:35:55.491Z,23.71
2022-08-19T11:38:26.893Z,23.62
2022-08-19T11:40:59.630Z,23.66
2022-08-19T11:43:34.380Z,23.70
2022-08-19T11:46:08.194Z,23.80
2022-08-19T11:48:39.837Z,23.70
2022-08-19T11:51:16.748Z,23.62
2022-08-19T11:53:48.007Z,23.63
2022-08-19T11:56:20.203Z,23.57
2022-08-19T11:58:50.906Z,23.48
2022-08-19T12:01:23.831Z,23.56
2022-08-19T12:03:56.801Z,23.54
2022-08-19T12:06:34.372Z,23.58
2022-08-19T12:09:08.418Z,23.81
2022-08-19T12:11:41.409Z,23.74
2022-08-19T12:14:15.077Z,23.58
2022-08-19T12:16:49.139Z,23.62
2022-08-19T12:19:21.886Z,23.53
2022-08-19T12:21:55.281Z,23.54
2022-08-19T12:24:26.070Z,23.53
2022-08-19T12:26:57.962Z,23.43
2022-08-19T12:29:31.287Z,23.68
2022-08-19T12:32:04.014Z,23.73
2022-08-19T12:34:37.156Z,23.73
2022-08-19T12:37:08.566Z,24.22
2022-08-19T12:39:42.711Z,24.48
2022-08-19T12:42:15.680Z,25.00
2022-08-19T12:44:46.750Z,24.55
2022-08-19T12:47:18.058Z,24.74
2022-08-19T12:49:55.499Z,24.72
2022-08-19T12:52:28.206Z,25.02
2022-08-19T12:54:58.998Z,24.94
2022-08-19T12:57:33.490Z,24.59
2022-08-19T13:00:14.313Z,24.59
2022-08-19T13:02:47.532Z,24.82
2022-08-19T13:05:23.428Z,24.96
2022-08-19T13:07:58.747Z,24.90
2022-08-19T13:10:34.559Z,24.94
2022-08-19T13:13:08.133Z,24.64
2022-08-19T13:15:41.563Z,24.38
2022-08-19T13:18:13.426Z,24.58
2022-08-19T13:20:52.613Z,24.76
2022-08-19T13:23:16.224Z,24.98
2022-08-19T13:25:48.105Z,24.79
2022-08-19T13:28:18.747Z,24.62
2022-08-19T13:31:08.842Z,24.66
2022-08-19T13:33:39.315Z,24.87
2022-08-19T13:36:09.898Z,25.09
2022-08-19T13:38:41.452Z,24.87
2022-08-19T13:41:14.762Z,25.00
2022-08-19T13:43:44.015Z,24.87
2022-08-19T13:46:17.587Z,24.60
2022-08-19T13:48:52.164Z,25.02
2022-08-19T13:51:22.688Z,24.84
2022-08-19T13:53:54.301Z,24.78
2022-08-19T13:56:26.475Z,24.71
2022-08-19T13:58:59.508Z,24.61
2022-08-19T14:01:31.509Z,24.63
2022-08-19T14:04:02.526Z,24.45
2022-08-19T14:06:33.487Z,24.53
2022-08-19T14:09:04.303Z,24.56
2022-08-19T14:11:34.932Z,24.75
2022-08-19T14:14:05.731Z,24.66
2022-08-19T14:16:36.251Z,24.82
2022-08-19T14:19:08.463Z,24.53
2022-08-19T14:21:41.616Z,24.78
2022-08-19T14:24:11.393Z,24.54
2022-08-19T14:26:42.009Z,24.49
2022-08-19T14:29:13.602Z,24.54
2022-08-19T14:31:45.060Z,24.65
2022-08-19T14:34:15.585Z,24.59
2022-08-19T14:36:47.003Z,24.48
2022-08-19T14:39:19.109Z,24.34
2022-08-19T14:41:49.638Z,24.22
2022-08-19T14:44:20.564Z,24.20
2022-08-19T14:46:51.193Z,24.05
2022-08-19T14:49:22.513Z,23.79
2022-08-19T14:51:55.793Z,23.98
2022-08-19T14:54:26.299Z,24.10
2022-08-19T14:56:58.476Z,24.21
2022-08-19T14:59:28.929Z,24.17
2022-08-19T15:02:20.228Z,24.14
2022-08-19T15:04:33.903Z,24.18
2022-08-19T15:07:05.423Z,24.06
2022-08-19T15:09:36.584Z,24.12
2022-08-19T15:12:07.279Z,23.98
2022-08-19T15:14:38.894Z,23.88
2022-08-19T15:17:09.545Z,23.76
2022-08-19T15:19:40.057Z,23.65
2022-08-19T15:22:11.643Z,23.52
2022-08-19T15:24:47.810Z,23.45
2022-08-19T15:27:15.953Z,23.48
2022-08-19T15:29:46.744Z,23.53
2022-08-19T15:32:17.268Z,23.43
2022-08-19T15:34:49.615Z,23.59
2022-08-19T15:37:21.749Z,23.38
2022-08-19T15:39:52.437Z,23.18
2022-08-19T15:42:29.996Z,23.24
2022-08-19T15:44:56.752Z,23.04
2022-08-19T15:47:34.409Z,23.06
2022-08-19T15:50:10.651Z,23.00
2022-08-19T15:52:50.491Z,22.83
2022-08-19T15:55:32.815Z,22.99
2022-08-19T15:58:27.711Z,22.85
2022-08-19T16:01:04.286Z,22.81
2022-08-19T16:03:54.001Z,22.74
2022-08-19T16:06:27.284Z,22.67
2022-08-19T16:09:01.916Z,22.80
2022-08-19T16:11:39.460Z,22.78
2022-08-19T16:14:09.064Z,22.67
2022-08-19T16:16:39.639Z,22.73
2022-08-19T16:19:12.040Z,22.74
2022-08-19T16:21:45.406Z,22.78
2022-08-19T16:24:21.871Z,22.90
2022-08-19T16:26:54.852Z,22.93
2022-08-19T16:29:34.023Z,23.04
2022-08-19T16:31:59.501Z,22.77
2022-08-19T16:34:34.005Z,22.86
2022-08-19T16:37:04.573Z,22.69
2022-08-19T16:39:35.171Z,22.76
2022-08-19T16:42:07.706Z,22.92
2022-08-19T16:44:40.087Z,22.84
2022-08-19T16:47:10.955Z,22.62
2022-08-19T16:49:54.290Z,22.65
2022-08-19T16:52:14.808Z,22.72
2022-08-19T16:54:46.149Z,22.71
2022-08-19T16:57:16.850Z,22.73
2022-08-19T16:59:48.928Z,22.58
2022-08-19T17:02:34.763Z,22.52
2022-08-19T17:05:05.637Z,22.46
2022-08-19T17:07:36.495Z,22.34
2022-08-19T17:10:07.341Z,22.27
2022-08-19T17:12:37.833Z,22.25
2022-08-19T17:15:09.376Z,22.11
2022-08-19T17:17:41.580Z,22.15
2022-08-19T17:20:12.176Z,22.20
2022-08-19T17:22:42.723Z,22.15
2022-08-19T17:25:13.191Z,21.94
2022-08-19T17:27:43.643Z,22.06
2022-08-19T17:30:14.379Z,21.84
2022-08-19T17:32:45.113Z,21.91
2022-08-19T17:35:24.125Z,21.76
2022-08-19T17:37:52.916Z,21.94
2022-08-19T17:40:23.864Z,21.78
2022-08-19T17:42:54.760Z,21.78
2022-08-19T17:45:25.424Z,21.87
2022-08-19T17:47:56.977Z,21.67
2022-08-19T17:50:27.954Z,21.62
2022-08-19T17:53:00.450Z,21.80
2022-08-19T17:55:30.995Z,21.61
2022-08-19T17:58:03.615Z,21.60
2022-08-19T18:00:35.951Z,21.57
2022-08-19T18:03:07.446Z,21.72
2022-08-19T18:05:42.610Z,21.60
2022-08-19T18:08:13.471Z,21.67
2022-08-19T18:10:43.995Z,21.63
2022-08-19T18:13:17.382Z,21.57
2022-08-19T18:15:47.898Z,21.62
2022-08-19T18:18:18.746Z,21.66
2022-08-19T18:20:49.343Z,21.68
2022-08-19T18:23:41.265Z,21.64
2022-08-19T18:25:52.753Z,21.58
2022-08-19T18:28:24.648Z,21.60
2022-08-19T18:30:56.124Z,21.56
2022-08-19T18:33:26.588Z,21.56
2022-08-19T18:35:57.008Z,21.52
2022-08-19T18:38:45.533Z,21.56
2022-08-19T18:41:34.389Z,21.61
2022-08-19T18:44:22.868Z,21.57
2022-08-19T18:47:12.976Z,21.47
2022-08-19T18:49:43.374Z,21.48
2022-08-19T18:52:13.872Z,21.54
2022-08-19T18:54:45.991Z,21.64
2022-08-19T18:57:18.648Z,21.60
2022-08-19T18:59:49.153Z,21.62
2022-08-19T19:02:23.131Z,21.59
2022-08-19T19:04:55.653Z,21.76
2022-08-19T19:07:26.951Z,21.65
2022-08-19T19:09:57.549Z,21.63
2022-08-19T19:12:31.750Z,21.72
2022-08-19T19:15:03.929Z,21.63
2022-08-19T19:17:35.220Z,21.61
2022-08-19T19:20:06.877Z,21.71
2022-08-19T19:22:37.407Z,21.70
2022-08-19T19:25:09.858Z,21.58
2022-08-19T19:27:40.590Z,21.63
2022-08-19T19:30:12.508Z,21.56
2022-08-19T19:32:44.720Z,21.71
2022-08-19T19:35:15.276Z,21.66
2022-08-19T19:37:48.841Z,21.74
2022-08-19T19:40:22.212Z,21.60
2022-08-19T19:42:54.804Z,21.61
2022-08-19T19:45:26.108Z,21.49
2022-08-19T19:47:57.914Z,21.43
2022-08-19T19:50:31.215Z,21.58
2022-08-19T19:53:05.011Z,21.48
2022-08-19T19:55:36.438Z,21.46
2022-08-19T19:58:07.303Z,21.60
2022-08-19T20:00:39.538Z,21.54
2022-08-19T20:03:10.440Z,21.54
2022-08-19T20:05:40.889Z,21.46
2022-08-19T20:08:30.384Z,21.41
2022-08-19T20:11:04.120Z,21.40
2022-08-19T20:13:36.056Z,21.35
2022-08-19T20:16:06.832Z,21.38
2022-08-19T20:18:38.983Z,21.27
2022-08-19T20:21:09.490Z,21.45
2022-08-19T20:23:40.236Z,21.46
2022-08-19T20:26:32.085Z,21.38
2022-08-19T20:28:46.951Z,21.55
2022-08-19T20:31:15.957Z,21.38
2022-08-19T20:33:49.279Z,21.26
2022-08-19T20:36:20.349Z,21.34
2022-08-19T20:38:51.063Z,21.32
2022-08-19T20:41:22.260Z,21.27
2022-08-19T20:43:57.464Z,21.31
2022-08-19T20:46:31.379Z,21.31
2022-08-19T20:49:02.481Z,21.20
2022-08-19T20:51:35.839Z,21.32
2022-08-19T20:54:06.404Z,21.25
2022-08-19T20:56:37.309Z,21.21
2022-08-19T20:59:09.439Z,21.16
2022-08-19T21:01:40.624Z,21.25
2022-08-19T21:04:11.146Z,21.30
2022-08-19T21:06:45.364Z,21.20
2022-08-19T21:09:16.381Z,21.04
2022-08-19T21:11:48.139Z,21.06
2022-08-19T21:14:19.560Z,21.00
2022-08-19T21:16:50.457Z,21.06
2022-08-19T21:19:23.954Z,21.10
2022-08-19T21:21:53.116Z,21.07
2022-08-19T21:24:26.379Z,21.10
2022-08-19T21:26:56.009Z,21.12
2022-08-19T21:29:26.922Z,21.11
2022-08-19T21:31:59.505Z,21.17
2022-08-19T21:34:32.256Z,21.18
2022-08-19T21:37:04.747Z,21.21
2022-08-19T21:39:36.265Z,21.14
2022-08-19T21:42:08.112Z,21.30
2022-08-19T21:44:40.151Z,21.30
2022-08-19T21:47:12.334Z,21.23
2022-08-19T21:49:43.000Z,21.29
2022-08-19T21:52:13.632Z,21.14
2022-08-19T21:54:45.677Z,21.26
2022-08-19T21:57:16.254Z,21.11
2022-08-19T21:59:47.064Z,21.15
2022-08-19T22:02:21.514Z,21.16
2022-08-19T22:04:51.932Z,21.20
2022-08-19T22:07:23.747Z,21.24
2022-08-19T22:09:54.343Z,21.14
2022-08-19T22:12:28.984Z,21.14
2022-08-19T22:15:00.309Z,21.01
2022-08-19T22:17:32.471Z,21.10
2022-08-19T22:20:04.869Z,21.08
2022-08-19T22:22:37.398Z,21.01
2022-08-19T22:25:11.047Z,21.07
2022-08-19T22:27:42.353Z,20.96
2022-08-19T22:30:15.836Z,20.94
2022-08-19T22:32:48.934Z,20.97
2022-08-19T22:35:24.384Z,20.93
2022-08-19T22:37:55.099Z,21.01
2022-08-19T22:40:27.041Z,21.00
2022-08-19T22:43:06.601Z,20.85
2022-08-19T22:45:37.527Z,20.90
2022-08-19T22:48:10.280Z,20.93
2022-08-19T22:50:43.425Z,20.92
2022-08-19T22:53:13.903Z,20.97
2022-08-19T22:55:44.637Z,20.88
2022-08-19T22:58:17.165Z,20.89
2022-08-19T23:00:49.266Z,20.78
2022-08-19T23:03:19.826Z,20.63
2022-08-19T23:05:50.279Z,20.64
2022-08-19T23:08:23.022Z,20.59
2022-08-19T23:10:53.590Z,20.66
2022-08-19T23:13:24.724Z,20.76
2022-08-19T23:15:55.233Z,20.74
2022-08-19T23:18:26.226Z,20.78
2022-08-19T23:20:58.149Z,20.77
2022-08-19T23:23:29.669Z,20.72
2022-08-19T23:26:00.039Z,20.77
2022-08-19T23:28:48.293Z,20.66
2022-08-19T23:31:20.045Z,20.61
2022-08-19T23:33:55.640Z,20.64
2022-08-19T23:36:27.060Z,20.54
2022-08-19T23:38:59.214Z,20.60
2022-08-19T23:41:29.788Z,20.70
2022-08-19T23:44:00.476Z,20.73
2022-08-19T23:46:32.736Z,20.74
2022-08-19T23:49:04.902Z,20.57
2022-08-19T23:51:36.866Z,20.62
2022-08-19T23:54:07.378Z,20.50
2022-08-19T23:56:41.112Z,20.63
2022-08-19T23:59:10.568Z,20.70
